Time;durP1;ratioP1;P1;durP2;ratioP2;P2;SDS_P1;SDS_P2;PMS_P1;PMS_P2;Temp;Humidity;BMP_temperature;BMP_pressure;BME280_temperature;BME280_humidity;BME280_pressure;Samples;Min_cycle;Max_cycle;Signal;HPM_P1;HPM_P2
2022/09/22 00:02:01;;;;;;;3.65;2.90;;;6.70;99.90;;;;;;5056653;28;20084;-71
2022/09/22 00:04:27;;;;;;;7.13;3.10;;;6.60;99.90;;;;;;5057037;28;20025;-72
2022/09/22 00:06:54;;;;;;;4.50;3.05;;;6.60;99.90;;;;;;5057012;28;20063;-72
2022/09/22 00:09:20;;;;;;;7.30;2.78;;;6.60;99.90;;;;;;5038878;28;20021;-72
2022/09/22 00:11:49;;;;;;;4.32;2.90;;;6.50;99.90;;;;;;5038829;28;20025;-72
2022/09/22 00:14:22;;;;;;;4.20;2.80;;;6.50;99.90;;;;;;5056421;28;20021;-72
2022/09/22 00:16:53;;;;;;;4.25;2.72;;;6.40;99.90;;;;;;5038444;28;20025;-72
2022/09/22 00:19:23;;;;;;;4.82;2.47;;;6.30;99.90;;;;;;5038652;28;20032;-71
2022/09/22 00:21:49;;;;;;;6.22;3.03;;;6.30;99.90;;;;;;5056528;28;20037;-71
2022/09/22 00:24:15;;;;;;;5.25;2.63;;;6.30;99.90;;;;;;5038523;28;20039;-72
2022/09/22 00:26:42;;;;;;;6.28;2.85;;;6.30;99.90;;;;;;5056715;28;20075;-72
2022/09/22 00:29:08;;;;;;;3.85;2.70;;;6.20;99.90;;;;;;5038786;28;20531;-71
2022/09/22 00:31:36;;;;;;;3.90;2.97;;;6.20;99.90;;;;;;5038446;28;20031;-72
2022/09/22 00:34:03;;;;;;;8.97;2.33;;;6.20;99.90;;;;;;5056330;28;20029;-72
2022/09/22 00:36:30;;;;;;;6.28;3.10;;;6.20;99.90;;;;;;5037904;28;20033;-71
2022/09/22 00:38:57;;;;;;;4.20;2.95;;;6.20;99.90;;;;;;5038311;28;20031;-71
2022/09/22 00:41:26;;;;;;;5.13;3.72;;;6.20;99.90;;;;;;5055843;28;20074;-71
2022/09/22 00:44:17;;;;;;;5.93;3.60;;;6.10;99.90;;;;;;5038178;28;20132;-71
2022/09/22 00:46:46;;;;;;;4.78;3.28;;;6.10;99.90;;;;;;5056069;28;20071;-72
2022/09/22 00:49:14;;;;;;;5.80;3.15;;;6.10;99.90;;;;;;5038147;28;20430;-71
2022/09/22 00:51:42;;;;;;;4.50;3.35;;;6.10;99.90;;;;;;5056019;28;20029;-71
2022/09/22 00:54:13;;;;;;;4.10;3.25;;;6.10;99.90;;;;;;5056027;28;20061;-71
2022/09/22 00:57:04;;;;;;;5.20;3.15;;;6.00;99.90;;;;;;5056040;28;20112;-71
2022/09/22 00:59:30;;;;;;;4.50;3.15;;;6.00;99.90;;;;;;5055884;28;20028;-71
2022/09/22 01:01:55;;;;;;;3.28;2.80;;;5.90;99.90;;;;;;5037664;28;20049;-71
2022/09/22 01:04:22;;;;;;;4.80;3.53;;;5.90;99.90;;;;;;5038353;28;20037;-71
2022/09/22 01:06:48;;;;;;;3.72;2.90;;;5.90;99.90;;;;;;5055719;28;20029;-71
2022/09/22 01:09:15;;;;;;;4.45;3.22;;;5.90;99.90;;;;;;5037700;28;20032;-72
2022/09/22 01:11:42;;;;;;;3.78;3.05;;;5.80;99.90;;;;;;5056151;28;20021;-71
2022/09/22 01:14:32;;;;;;;4.68;3.15;;;5.90;99.90;;;;;;5038203;28;20111;-71
2022/09/22 01:17:18;;;;;;;7.18;3.35;;;5.90;99.90;;;;;;5055493;28;20095;-71
2022/09/22 01:20:05;;;;;;;4.50;3.28;;;5.90;99.90;;;;;;5037969;28;20131;-71
2022/09/22 01:22:45;;;;;;;7.03;3.78;;;5.90;99.90;;;;;;5037442;28;20032;-71
2022/09/22 01:25:49;;;;;;;4.55;3.22;;;5.80;99.90;;;;;;5037586;28;20404;-71
2022/09/22 01:28:45;;;;;;;5.78;3.50;;;5.80;99.90;;;;;;5037350;28;20419;-71
2022/09/22 01:31:24;;;;;;;3.50;3.00;;;5.80;99.90;;;;;;5037426;28;20036;-71
2022/09/22 01:34:03;;;;;;;6.07;3.63;;;5.80;99.90;;;;;;5055412;28;20064;-71
2022/09/22 01:36:54;;;;;;;3.78;3.22;;;5.80;99.90;;;;;;5055182;28;20111;-71
2022/09/22 01:39:36;;;;;;;7.82;3.55;;;5.80;99.90;;;;;;5037239;28;20028;-71
2022/09/22 01:42:10;;;;;;;3.15;2.80;;;5.80;99.90;;;;;;5054680;28;20025;-71
2022/09/22 01:44:52;;;;;;;7.13;2.97;;;5.80;99.90;;;;;;5055114;28;20032;-71
2022/09/22 01:47:32;;;;;;;6.20;3.15;;;5.80;99.90;;;;;;5036246;28;20512;-71
2022/09/22 01:50:03;;;;;;;4.28;2.95;;;5.80;99.90;;;;;;5054883;28;20029;-71
2022/09/22 01:52:34;;;;;;;4.82;3.28;;;5.80;99.90;;;;;;5054860;28;20033;-71
2022/09/22 01:55:07;;;;;;;7.00;3.40;;;5.80;99.90;;;;;;5037163;28;20491;-71
2022/09/22 01:57:46;;;;;;;4.07;3.10;;;5.80;99.90;;;;;;5054702;28;20021;-71
2022/09/22 02:00:12;;;;;;;5.80;3.42;;;5.80;99.90;;;;;;5037242;28;20040;-71
2022/09/22 02:02:49;;;;;;;3.97;3.33;;;5.80;99.90;;;;;;5054416;28;20048;-71
2022/09/22 02:05:27;;;;;;;4.72;3.05;;;5.80;99.90;;;;;;5036764;28;20025;-71
2022/09/22 02:07:54;;;;;;;4.65;3.50;;;5.80;99.90;;;;;;5054523;28;20469;-71
2022/09/22 02:10:29;;;;;;;4.78;3.10;;;5.80;99.90;;;;;;5036636;28;20021;-71
2022/09/22 02:12:55;;;;;;;4.88;3.45;;;5.80;99.90;;;;;;5037001;28;20028;-71
2022/09/22 02:18:12;;;;;;;8.98;3.67;;;5.80;99.90;;;;;;5054533;28;20035;-71
2022/09/22 02:20:39;;;;;;;7.78;3.95;;;5.90;99.90;;;;;;5054318;28;20021;-71
2022/09/22 02:23:05;;;;;;;4.57;3.28;;;5.90;99.90;;;;;;5054133;28;20036;-72
2022/09/22 02:25:31;;;;;;;3.97;3.10;;;5.90;99.90;;;;;;5054171;28;20358;-71
2022/09/22 02:27:57;;;;;;;6.50;3.35;;;5.90;99.90;;;;;;5036748;28;20052;-71
2022/09/22 02:30:25;;;;;;;3.35;3.05;;;5.80;99.90;;;;;;5054074;28;20096;-71
2022/09/22 02:32:53;;;;;;;4.07;2.97;;;5.80;99.90;;;;;;5053754;28;20029;-71
2022/09/22 02:35:19;;;;;;;4.63;3.08;;;5.80;99.90;;;;;;5036487;28;20025;-71
2022/09/22 02:38:08;;;;;;;4.43;3.15;;;5.90;99.90;;;;;;5036132;28;20075;-71
2022/09/22 02:40:57;;;;;;;3.90;3.50;;;5.90;99.90;;;;;;5036436;28;20063;-71
2022/09/22 02:43:38;;;;;;;6.32;3.53;;;5.90;99.90;;;;;;5053962;28;20071;-71
2022/09/22 02:46:22;;;;;;;6.25;3.28;;;6.00;99.90;;;;;;5054778;28;20036;-71
2022/09/22 02:48:57;;;;;;;5.95;3.22;;;6.00;99.90;;;;;;5036176;28;20053;-71
2022/09/22 02:51:23;;;;;;;4.63;3.67;;;5.90;99.90;;;;;;5036246;28;20074;-71
2022/09/22 02:53:49;;;;;;;7.30;3.40;;;5.90;99.90;;;;;;5036016;28;20029;-71
2022/09/22 02:56:15;;;;;;;4.47;3.00;;;5.90;99.90;;;;;;5035626;28;20055;-70
2022/09/22 02:58:40;;;;;;;4.57;3.20;;;5.90;99.90;;;;;;5053611;28;20025;-71
2022/09/22 03:01:06;;;;;;;5.72;2.75;;;5.90;99.90;;;;;;5035899;28;20419;-71
2022/09/22 03:03:31;;;;;;;4.30;3.00;;;5.80;99.90;;;;;;5052034;28;20102;-71
2022/09/22 03:05:57;;;;;;;4.72;3.05;;;5.80;99.90;;;;;;5055818;28;20040;-71
2022/09/22 03:08:23;;;;;;;12.93;4.10;;;5.80;99.90;;;;;;5073683;28;20036;-71
2022/09/22 03:10:48;;;;;;;4.38;2.90;;;5.80;99.90;;;;;;5055705;28;20376;-71
2022/09/22 03:13:14;;;;;;;4.85;3.08;;;5.80;99.90;;;;;;5055775;28;20064;-71
2022/09/22 03:15:40;;;;;;;3.90;3.05;;;5.70;99.90;;;;;;5073603;28;20089;-71
2022/09/22 03:18:05;;;;;;;6.97;3.20;;;5.70;99.90;;;;;;5073352;28;20489;-71
2022/09/22 03:20:31;;;;;;;3.95;3.30;;;5.70;99.90;;;;;;5073371;28;20103;-71
2022/09/22 03:22:57;;;;;;;5.65;3.30;;;5.70;99.90;;;;;;5073219;28;20039;-71
2022/09/22 03:25:22;;;;;;;6.75;5.35;;;5.70;99.90;;;;;;5055517;28;20025;-71
2022/09/22 03:27:48;;;;;;;9.55;4.57;;;5.80;99.90;;;;;;5073527;28;20483;-71
2022/09/22 03:30:14;;;;;;;6.28;3.20;;;5.70;99.90;;;;;;5055587;28;20031;-71
2022/09/22 03:32:40;;;;;;;6.03;3.63;;;5.70;99.90;;;;;;5056152;28;20032;-71
2022/09/22 03:35:06;;;;;;;6.05;4.40;;;5.80;99.90;;;;;;5074261;28;20024;-74
2022/09/22 03:37:33;;;;;;;9.05;3.80;;;5.80;99.90;;;;;;5074472;28;20028;-71
2022/09/22 03:39:58;;;;;;;5.63;4.22;;;5.80;99.90;;;;;;5056542;28;20028;-74
2022/09/22 03:42:24;;;;;;;7.38;4.22;;;5.80;99.90;;;;;;5056754;28;20539;-71
2022/09/22 03:44:50;;;;;;;4.45;3.67;;;5.80;99.90;;;;;;5074433;28;20103;-71
2022/09/22 03:47:15;;;;;;;6.07;3.55;;;5.80;99.90;;;;;;5055803;28;20029;-71
2022/09/22 03:49:41;;;;;;;6.10;3.67;;;5.80;99.90;;;;;;5055962;28;20388;-71
2022/09/22 03:52:07;;;;;;;4.15;3.58;;;5.80;99.90;;;;;;5073222;28;20457;-71
2022/09/22 03:54:35;;;;;;;5.53;3.55;;;5.80;99.90;;;;;;5055256;28;20031;-71
2022/09/22 03:57:02;;;;;;;4.82;4.15;;;5.80;99.90;;;;;;5055194;28;20499;-71
2022/09/22 03:59:28;;;;;;;4.80;3.45;;;5.80;99.90;;;;;;5073198;28;20029;-71
2022/09/22 04:01:54;;;;;;;6.20;3.70;;;5.80;99.90;;;;;;5051909;28;20167;-71
2022/09/22 04:04:20;;;;;;;9.30;3.38;;;5.90;99.90;;;;;;5052849;28;20107;-71
2022/09/22 04:06:45;;;;;;;8.40;4.35;;;5.90;99.90;;;;;;5053104;28;20032;-71
2022/09/22 04:09:11;;;;;;;5.82;3.30;;;5.90;99.90;;;;;;5035260;28;20029;-73
2022/09/22 04:11:37;;;;;;;6.68;4.18;;;5.90;99.90;;;;;;5038255;28;20025;-74
2022/09/22 04:14:03;;;;;;;8.65;4.07;;;5.90;99.90;;;;;;5056627;28;20106;-74
2022/09/22 04:16:30;;;;;;;5.13;4.20;;;5.80;99.90;;;;;;5039043;28;20029;-73
2022/09/22 04:18:56;;;;;;;9.57;4.50;;;5.80;99.90;;;;;;5038800;28;20034;-75
2022/09/22 04:21:22;;;;;;;4.75;3.80;;;5.90;99.90;;;;;;5038334;28;20025;-74
2022/09/22 04:23:47;;;;;;;8.25;3.90;;;5.80;99.90;;;;;;5038986;28;20058;-73
2022/09/22 04:26:13;;;;;;;5.28;3.80;;;5.80;99.90;;;;;;5038583;28;20432;-72
2022/09/22 04:28:39;;;;;;;5.10;3.72;;;5.80;99.90;;;;;;5056393;28;20468;-70
2022/09/22 04:31:05;;;;;;;5.15;4.03;;;5.80;99.90;;;;;;5056388;28;20021;-72
2022/09/22 04:33:30;;;;;;;9.82;4.18;;;5.80;99.90;;;;;;5056695;28;20083;-71
2022/09/22 04:35:56;;;;;;;14.80;4.38;;;5.70;99.90;;;;;;5056292;28;20117;-71
2022/09/22 04:38:22;;;;;;;8.48;4.57;;;5.70;99.90;;;;;;5055915;28;20483;-72
2022/09/22 04:40:48;;;;;;;6.20;4.25;;;5.60;99.90;;;;;;5055925;28;20025;-72
2022/09/22 04:43:14;;;;;;;10.43;4.68;;;5.60;99.90;;;;;;5056069;28;20116;-72
2022/09/22 04:45:47;;;;;;;6.95;4.15;;;5.60;99.90;;;;;;5056079;28;20052;-70
2022/09/22 04:48:14;;;;;;;8.15;4.32;;;5.60;99.90;;;;;;5056076;28;20061;-71
2022/09/22 04:50:39;;;;;;;10.85;4.20;;;5.60;99.90;;;;;;5037811;28;20032;-71
2022/09/22 04:53:05;;;;;;;8.88;4.30;;;5.60;99.90;;;;;;5038098;28;20025;-70
2022/09/22 04:55:31;;;;;;;9.50;4.60;;;5.60;99.90;;;;;;5038082;28;20056;-71
2022/09/22 04:57:57;;;;;;;9.05;4.35;;;5.70;99.90;;;;;;5038038;28;20063;-73
2022/09/22 05:00:25;;;;;;;6.10;4.82;;;5.70;99.90;;;;;;5055820;28;20025;-73
2022/09/22 05:02:51;;;;;;;6.63;3.70;;;5.80;99.90;;;;;;5055674;28;20063;-74
2022/09/22 05:05:17;;;;;;;8.88;4.70;;;5.90;99.90;;;;;;5038395;28;20024;-74
2022/09/22 05:07:45;;;;;;;7.50;4.50;;;5.90;99.90;;;;;;5055275;28;20091;-73
2022/09/22 05:10:12;;;;;;;6.70;4.25;;;5.90;99.90;;;;;;5055418;28;20420;-73
2022/09/22 05:12:38;;;;;;;9.55;4.05;;;6.00;99.90;;;;;;5055260;28;20062;-72
2022/09/22 05:15:05;;;;;;;7.05;4.40;;;6.00;99.90;;;;;;5055322;28;20052;-72
2022/09/22 05:17:31;;;;;;;5.53;4.07;;;6.00;99.90;;;;;;5037674;28;20079;-72
2022/09/22 05:19:57;;;;;;;7.57;4.45;;;6.00;99.90;;;;;;5037628;28;20036;-73
2022/09/22 05:22:22;;;;;;;12.38;5.30;;;6.10;99.90;;;;;;5055565;28;20053;-73
2022/09/22 05:24:48;;;;;;;10.07;5.47;;;6.10;99.90;;;;;;5037562;28;20469;-73
2022/09/22 05:27:14;;;;;;;5.60;4.18;;;6.10;99.90;;;;;;5055365;28;20512;-73
2022/09/22 05:29:39;;;;;;;10.70;5.13;;;6.20;99.90;;;;;;5037003;28;20025;-73
2022/09/22 05:32:05;;;;;;;7.55;4.45;;;6.20;99.90;;;;;;5037967;28;20025;-73
2022/09/22 05:34:31;;;;;;;11.07;4.10;;;6.30;99.90;;;;;;5037412;28;20333;-73
2022/09/22 05:36:57;;;;;;;11.90;4.45;;;6.40;99.90;;;;;;5055144;28;20029;-73
2022/09/22 05:39:23;;;;;;;6.82;5.00;;;6.40;99.90;;;;;;5055384;28;20076;-73
2022/09/22 05:41:48;;;;;;;12.23;5.22;;;6.50;99.90;;;;;;5037188;28;20025;-73
2022/09/22 05:44:14;;;;;;;12.02;5.45;;;6.50;99.90;;;;;;5036995;28;20465;-73
2022/09/22 05:46:40;;;;;;;7.75;4.50;;;6.60;99.90;;;;;;5054681;28;20105;-73
2022/09/22 05:49:06;;;;;;;8.52;4.90;;;6.60;99.90;;;;;;5037007;28;20445;-73
2022/09/22 05:51:32;;;;;;;9.38;4.68;;;6.70;99.90;;;;;;5036893;28;20461;-73
2022/09/22 05:53:58;;;;;;;6.80;4.30;;;7.00;99.90;;;;;;5036980;28;20040;-74
2022/09/22 05:56:23;;;;;;;8.63;4.00;;;7.30;99.90;;;;;;5055534;28;20100;-74
2022/09/22 05:58:49;;;;;;;9.05;3.28;;;7.60;99.90;;;;;;5037593;28;20025;-74
2022/09/22 06:01:14;;;;;;;6.85;3.20;;;7.70;99.90;;;;;;5055373;28;20070;-76
2022/09/22 06:03:40;;;;;;;7.63;3.53;;;7.80;99.90;;;;;;5055405;28;20049;-74
2022/09/22 06:06:06;;;;;;;4.82;3.35;;;8.00;99.90;;;;;;5057855;28;20081;-74
2022/09/22 06:08:31;;;;;;;4.85;3.25;;;8.10;99.90;;;;;;5075861;28;20115;-74
2022/09/22 06:10:57;;;;;;;4.95;3.17;;;8.10;99.90;;;;;;5075994;28;20028;-74
2022/09/22 06:13:23;;;;;;;6.95;3.53;;;8.10;99.90;;;;;;5058137;28;20040;-74
2022/09/22 06:15:49;;;;;;;7.32;3.33;;;8.00;99.90;;;;;;5075113;28;20025;-74
2022/09/22 06:18:16;;;;;;;4.15;3.20;;;7.90;99.90;;;;;;5075055;28;20049;-74
2022/09/22 06:20:43;;;;;;;4.95;3.30;;;7.90;99.90;;;;;;5056600;28;20051;-74
2022/09/22 06:23:14;;;;;;;8.32;3.90;;;7.90;99.90;;;;;;5056359;28;20028;-74
2022/09/22 06:25:41;;;;;;;4.78;3.10;;;7.80;99.90;;;;;;5056673;28;20029;-74
2022/09/22 06:28:09;;;;;;;6.47;3.70;;;7.90;99.90;;;;;;5056553;28;20055;-73
2022/09/22 06:30:39;;;;;;;7.80;3.58;;;7.90;99.90;;;;;;5056325;28;20028;-74
2022/09/22 06:33:09;;;;;;;6.60;4.13;;;7.90;99.90;;;;;;5055811;28;20450;-73
2022/09/22 06:35:37;;;;;;;5.20;4.13;;;7.90;99.90;;;;;;5074170;28;20067;-74
2022/09/22 06:38:05;;;;;;;6.47;4.10;;;8.00;99.90;;;;;;5056155;28;20032;-74
2022/09/22 06:40:35;;;;;;;8.82;4.15;;;8.10;99.90;;;;;;5056078;28;20031;-74
2022/09/22 06:43:10;;;;;;;7.95;4.28;;;8.10;99.90;;;;;;5055668;28;20040;-73
2022/09/22 06:45:38;;;;;;;7.20;4.13;;;8.30;99.90;;;;;;5056289;28;20024;-74
2022/09/22 06:48:03;;;;;;;6.55;4.43;;;8.50;99.90;;;;;;5074598;28;20033;-73
2022/09/22 06:50:31;;;;;;;5.03;3.63;;;8.70;99.90;;;;;;5056424;28;20036;-74
2022/09/22 06:53:01;;;;;;;5.35;3.50;;;8.90;99.90;;;;;;5074170;28;20024;-75
2022/09/22 06:55:28;;;;;;;9.45;4.03;;;9.10;99.90;;;;;;5074175;28;20099;-73
2022/09/22 06:57:57;;;;;;;5.68;4.40;;;9.20;99.90;;;;;;5055930;28;20440;-74
2022/09/22 07:00:27;;;;;;;7.03;4.28;;;9.30;99.90;;;;;;5056121;28;20501;-73
2022/09/22 07:03:00;;;;;;;5.25;3.72;;;9.30;99.90;;;;;;5062813;28;20041;-73
2022/09/22 07:05:25;;;;;;;6.38;4.15;;;9.50;99.90;;;;;;5035835;28;20021;-74
2022/09/22 07:07:51;;;;;;;5.30;3.50;;;9.80;99.90;;;;;;5053948;28;20021;-74
2022/09/22 07:10:16;;;;;;;5.80;3.45;;;10.20;99.90;;;;;;5036078;28;20048;-73
2022/09/22 07:12:42;;;;;;;3.83;2.88;;;11.10;99.90;;;;;;5035777;28;20029;-73
2022/09/22 07:15:08;;;;;;;5.18;2.95;;;12.20;99.90;;;;;;5035793;28;20025;-74
2022/09/22 07:17:34;;;;;;;2.97;2.08;;;13.40;99.90;;;;;;5053648;28;20468;-74
2022/09/22 07:20:00;;;;;;;3.75;2.22;;;14.30;99.90;;;;;;5035919;28;20095;-74
2022/09/22 07:22:26;;;;;;;4.35;2.03;;;14.70;99.90;;;;;;5053367;28;20453;-74
2022/09/22 07:24:52;;;;;;;2.05;1.80;;;14.80;99.90;;;;;;5053615;28;20372;-74
2022/09/22 07:27:24;;;;;;;3.55;1.70;;;15.10;99.90;;;;;;5035552;28;20116;-74
2022/09/22 07:29:53;;;;;;;2.60;1.55;;;15.50;99.90;;;;;;5035637;28;20029;-74
2022/09/22 07:32:20;;;;;;;3.70;1.40;;;15.00;99.90;;;;;;5053299;28;20061;-74
2022/09/22 07:34:47;;;;;;;2.85;1.77;;;14.20;99.90;;;;;;5035536;28;20491;-74
2022/09/22 07:37:14;;;;;;;3.55;2.00;;;13.60;99.90;;;;;;5053440;28;20021;-74
2022/09/22 07:39:42;;;;;;;4.43;2.10;;;13.30;99.90;;;;;;5053395;28;20029;-74
2022/09/22 07:42:07;;;;;;;3.92;2.05;;;13.00;99.90;;;;;;5053335;28;20021;-74
2022/09/22 07:48:34;;;;;;;4.78;2.10;;;12.90;99.90;;;;;;5057355;28;20036;-74
2022/09/22 07:50:03;;;;;;;3.13;2.00;;;12.90;99.90;;;;;;5057010;28;20070;-74
2022/09/22 07:52:29;;;;;;;4.20;2.25;;;12.60;99.90;;;;;;5057055;28;20043;-74
2022/09/22 07:54:54;;;;;;;5.30;2.30;;;12.60;99.90;;;;;;5057400;28;20026;-74
2022/09/22 07:57:20;;;;;;;4.13;2.35;;;12.40;99.90;;;;;;5039496;28;20083;-74
2022/09/22 07:59:46;;;;;;;5.88;2.47;;;12.40;99.90;;;;;;5057304;28;20163;-74
2022/09/22 08:02:11;;;;;;;4.53;2.13;;;12.40;99.90;;;;;;5044382;28;20082;-74
2022/09/22 08:04:37;;;;;;;4.35;2.58;;;12.40;99.90;;;;;;5059082;28;20028;-74
2022/09/22 08:07:03;;;;;;;3.30;2.00;;;12.30;99.90;;;;;;5059248;28;20032;-74
2022/09/22 08:09:32;;;;;;;2.90;2.47;;;12.30;99.90;;;;;;5059638;28;20025;-74
2022/09/22 08:11:58;;;;;;;2.53;2.30;;;12.30;99.90;;;;;;5076466;28;20384;-74
2022/09/22 08:14:24;;;;;;;2.50;2.28;;;12.40;99.90;;;;;;5076721;28;20112;-74
2022/09/22 08:16:52;;;;;;;3.15;2.45;;;12.50;99.90;;;;;;5076683;28;20036;-74
2022/09/22 08:19:18;;;;;;;3.00;1.80;;;12.60;99.90;;;;;;5058680;28;20468;-74
2022/09/22 08:21:50;;;;;;;2.88;2.05;;;12.70;99.90;;;;;;5058583;28;20071;-74
2022/09/22 08:24:21;;;;;;;5.10;2.75;;;12.80;99.90;;;;;;5058676;28;20071;-74
2022/09/22 08:26:47;;;;;;;5.25;2.75;;;12.90;99.90;;;;;;5058839;28;20032;-74
2022/09/22 08:29:13;;;;;;;2.97;2.25;;;13.00;99.90;;;;;;5060528;28;20020;-74
2022/09/22 08:31:40;;;;;;;3.13;1.83;;;13.20;99.90;;;;;;5078332;28;20372;-74
2022/09/22 08:34:07;;;;;;;2.50;2.00;;;13.30;99.90;;;;;;5077650;28;20025;-74
2022/09/22 08:36:33;;;;;;;2.30;1.75;;;13.40;99.90;;;;;;5076651;28;20487;-74
2022/09/22 08:39:00;;;;;;;2.78;2.25;;;13.60;99.90;;;;;;5058979;28;20024;-74
2022/09/22 08:41:37;;;;;;;1.67;1.58;;;13.60;99.90;;;;;;5058669;28;20024;-74
2022/09/22 08:44:17;;;;;;;3.10;2.03;;;13.80;99.90;;;;;;5058275;28;20036;-75
2022/09/22 08:46:45;;;;;;;2.00;1.80;;;14.00;99.90;;;;;;5076185;28;20078;-74
2022/09/22 08:52:52;;;;;;;1.85;1.75;;;15.30;99.90;;;;;;5076052;28;20032;-74
2022/09/22 08:55:24;;;;;;;2.42;1.98;;;16.20;99.90;;;;;;5057913;28;20021;-75
2022/09/22 08:58:07;;;;;;;2.42;2.00;;;16.80;99.90;;;;;;5057798;28;20024;-74
2022/09/22 09:00:39;;;;;;;3.83;2.17;;;17.50;99.70;;;;;;5057930;28;20119;-75
2022/09/22 09:03:25;;;;;;;1.98;1.83;;;18.00;98.30;;;;;;5057229;28;20091;-75
2022/09/22 09:06:11;;;;;;;1.70;1.38;;;18.40;96.20;;;;;;5058012;28;20017;-75
2022/09/22 09:09:11;;;;;;;1.48;1.25;;;18.20;95.80;;;;;;5075989;28;20032;-75
2022/09/22 09:11:46;;;;;;;1.65;1.55;;;17.40;96.60;;;;;;5058193;28;20024;-74
2022/09/22 09:14:33;;;;;;;2.38;1.17;;;17.30;97.00;;;;;;5057608;28;20035;-74
2022/09/22 09:17:10;;;;;;;1.88;1.33;;;17.70;97.10;;;;;;5057580;28;20035;-75
2022/09/22 09:19:42;;;;;;;5.20;1.15;;;18.20;94.50;;;;;;5057185;28;20028;-74
2022/09/22 09:22:24;;;;;;;2.22;1.70;;;19.00;92.80;;;;;;5075751;28;20016;-75
2022/09/22 09:25:22;;;;;;;1.50;1.30;;;19.40;92.40;;;;;;5057496;28;20028;-75
2022/09/22 09:27:58;;;;;;;3.25;1.40;;;20.20;90.40;;;;;;5075183;28;20419;-75
2022/09/22 09:30:24;;;;;;;2.42;1.77;;;20.40;85.90;;;;;;5057342;28;20077;-75
2022/09/22 09:33:00;;;;;;;1.38;1.27;;;20.40;85.00;;;;;;5074860;28;20036;-75
2022/09/22 09:35:52;;;;;;;1.75;1.40;;;19.80;87.30;;;;;;5057175;28;20469;-74
2022/09/22 09:38:34;;;;;;;1.50;1.40;;;19.90;87.10;;;;;;5074847;28;20429;-74
2022/09/22 09:41:27;;;;;;;4.88;1.40;;;19.40;86.10;;;;;;5057177;28;20024;-74
2022/09/22 09:43:55;;;;;;;3.83;1.70;;;20.10;87.30;;;;;;5075001;28;20392;-75
2022/09/22 09:46:44;;;;;;;2.15;1.40;;;20.70;82.20;;;;;;5056661;28;20031;-75
2022/09/22 09:49:15;;;;;;;2.67;1.48;;;21.00;78.90;;;;;;5074882;28;20095;-75
2022/09/22 09:51:57;;;;;;;4.78;1.52;;;20.70;79.70;;;;;;5074796;28;20031;-74
2022/09/22 09:54:24;;;;;;;1.88;1.77;;;21.10;78.00;;;;;;5056717;28;20024;-74
2022/09/22 09:57:16;;;;;;;2.67;1.50;;;21.10;78.20;;;;;;5074632;28;20028;-74
2022/09/22 10:00:30;;;;;;;2.38;1.25;;;21.30;76.00;;;;;;5056703;28;20054;-74
2022/09/22 10:03:02;;;;;;;1.40;1.25;;;21.40;74.70;;;;;;5062610;28;20481;-74
2022/09/22 10:05:28;;;;;;;1.15;1.00;;;20.20;77.30;;;;;;5054507;28;20104;-74
2022/09/22 10:08:13;;;;;;;1.50;1.40;;;20.30;78.70;;;;;;5035901;28;20111;-74
2022/09/22 10:10:40;;;;;;;1.60;1.40;;;21.40;76.70;;;;;;5054697;28;20027;-74
2022/09/22 10:13:05;;;;;;;3.72;1.35;;;22.20;71.60;;;;;;5036561;28;20029;-74
2022/09/22 10:15:33;;;;;;;1.52;1.20;;;22.50;69.80;;;;;;5054642;28;20028;-74
2022/09/22 10:17:59;;;;;;;1.80;1.27;;;23.10;68.40;;;;;;5054089;28;20021;-75
2022/09/22 10:20:25;;;;;;;1.38;1.27;;;22.90;64.80;;;;;;5054288;28;20036;-74
2022/09/22 10:22:51;;;;;;;3.33;1.40;;;22.30;65.90;;;;;;5054161;28;20040;-75
2022/09/22 10:25:24;;;;;;;1.52;1.42;;;21.40;68.10;;;;;;5054579;28;20025;-74
2022/09/22 10:28:18;;;;;;;1.95;1.60;;;21.10;69.30;;;;;;5036725;28;20028;-74
2022/09/22 10:30:57;;;;;;;2.63;1.30;;;21.60;68.70;;;;;;5054417;28;20025;-74
2022/09/22 10:33:23;;;;;;;1.85;1.10;;;21.70;68.10;;;;;;5036393;28;20456;-74
2022/09/22 10:35:54;;;;;;;3.05;1.85;;;22.20;67.00;;;;;;5036198;28;20123;-74
2022/09/22 10:38:22;;;;;;;2.65;1.50;;;22.00;66.20;;;;;;5036427;28;20503;-73
2022/09/22 10:41:01;;;;;;;1.67;1.10;;;21.10;68.50;;;;;;5036013;28;20078;-74
2022/09/22 10:43:50;;;;;;;1.50;1.17;;;21.00;68.50;;;;;;5035930;28;20041;-73
2022/09/22 10:46:27;;;;;;;1.30;1.17;;;20.60;68.20;;;;;;5035890;28;20032;-74
2022/09/22 10:49:13;;;;;;;1.45;1.00;;;21.10;68.30;;;;;;5035916;28;20025;-74
2022/09/22 10:51:53;;;;;;;2.00;1.50;;;21.60;66.10;;;;;;5036004;28;20070;-74
2022/09/22 10:54:33;;;;;;;2.05;1.70;;;21.30;67.80;;;;;;5054134;28;20059;-74
2022/09/22 10:57:09;;;;;;;5.40;1.70;;;22.10;64.90;;;;;;5035900;28;20029;-73
2022/09/22 10:59:41;;;;;;;1.90;1.27;;;21.60;66.20;;;;;;5053820;28;20025;-74
2022/09/22 11:02:45;;;;;;;1.50;1.40;;;20.80;66.90;;;;;;5053479;28;20500;-74
2022/09/22 11:14:36;;;;;;;3.90;1.40;;;23.00;63.30;;;;;;5053821;28;20535;-74
2022/09/22 11:17:09;;;;;;;2.28;1.45;;;24.00;60.10;;;;;;5035492;28;20040;-74
2022/09/22 11:20:01;;;;;;;4.13;1.52;;;24.80;56.90;;;;;;5037618;28;20029;-74
2022/09/22 11:22:58;;;;;;;1.40;1.13;;;24.40;56.60;;;;;;5002296;28;20033;-74
2022/09/22 11:25:42;;;;;;;1.30;1.10;;;24.00;56.40;;;;;;5057930;28;20037;-74
2022/09/22 11:28:32;;;;;;;0.77;0.77;;;23.90;56.30;;;;;;5040557;28;20079;-74
2022/09/22 11:30:59;;;;;;;2.40;1.00;;;23.80;56.80;;;;;;5057485;28;20025;-74
2022/09/22 11:33:38;;;;;;;1.23;0.82;;;22.70;59.00;;;;;;5039468;28;20039;-74
2022/09/22 11:36:10;;;;;;;;;;;21.70;61.00;;;;;;5040189;28;20029;-73
2022/09/22 11:38:54;;;;;;;25.92;2.80;;;20.60;70.90;;;;;;5057320;28;19904;-72
2022/09/22 11:41:19;;;;;;;4.25;1.45;;;19.30;79.90;;;;;;5039381;28;20021;-73
2022/09/22 11:44:15;;;;;;;4.57;1.58;;;18.10;89.30;;;;;;5039583;28;20029;-73
2022/09/22 11:46:41;;;;;;;2.60;1.23;;;17.50;99.60;;;;;;5039285;28;20025;-73
2022/09/22 11:49:24;;;;;;;2.75;1.25;;;17.00;99.90;;;;;;5039257;28;20071;-73
2022/09/22 11:51:56;;;;;;;7.57;1.23;;;16.60;99.90;;;;;;5039234;28;20496;-73
2022/09/22 11:54:46;;;;;;;3.38;1.27;;;16.30;99.90;;;;;;5039113;28;20423;-73
2022/09/22 11:57:16;;;;;;;4.40;1.48;;;16.10;99.90;;;;;;5038999;28;20056;-73
2022/09/22 12:00:01;;;;;;;3.03;1.50;;;15.80;99.90;;;;;;5039295;28;20464;-73
2022/09/22 12:02:47;;;;;;;4.22;1.30;;;15.70;99.90;;;;;;5045970;28;20387;-73
2022/09/22 12:05:18;;;;;;;2.28;1.10;;;16.10;99.90;;;;;;5058544;28;20094;-73
2022/09/22 12:07:54;;;;;;;5.80;1.27;;;18.30;99.90;;;;;;5076904;28;20039;-73
2022/09/22 12:10:34;;;;;;;2.65;1.30;;;20.40;99.90;;;;;;5076631;28;20388;-73
2022/09/22 12:13:03;;;;;;;4.80;1.38;;;21.80;99.10;;;;;;5076725;28;20033;-73
2022/09/22 12:15:58;;;;;;;2.58;0.80;;;22.60;95.50;;;;;;5059235;28;20035;-74
2022/09/22 12:18:51;;;;;;;2.45;0.52;;;22.90;90.00;;;;;;5076608;28;20025;-73
2022/09/22 12:21:46;;;;;;;2.70;1.13;;;23.90;79.20;;;;;;5009501;28;20086;-74
2022/09/22 12:24:12;;;;;;;3.17;0.90;;;24.10;75.00;;;;;;5058608;28;20185;-73
2022/09/22 12:26:41;;;;;;;2.83;0.65;;;24.30;72.80;;;;;;5058412;28;20472;-74
2022/09/22 12:29:15;;;;;;;1.13;0.68;;;24.60;68.20;;;;;;5076525;28;20032;-74
2022/09/22 12:31:46;;;;;;;1.20;0.63;;;25.40;67.60;;;;;;5075818;28;20025;-74
2022/09/22 12:34:17;;;;;;;1.58;0.63;;;26.10;56.60;;;;;;5076401;28;20468;-73
2022/09/22 12:36:43;;;;;;;1.75;0.70;;;26.00;57.80;;;;;;5058497;28;20039;-73
2022/09/22 12:39:18;;;;;;;0.50;0.50;;;26.10;52.80;;;;;;5076120;28;20059;-74
2022/09/22 12:41:51;;;;;;;1.13;1.02;;;25.90;55.80;;;;;;5076018;28;20380;-74
2022/09/22 12:44:30;;;;;;;1.77;0.63;;;26.10;50.30;;;;;;5076361;28;20039;-73
2022/09/22 12:47:00;;;;;;;2.80;0.50;;;25.20;50.90;;;;;;5076377;28;20460;-73
2022/09/22 12:49:26;;;;;;;1.77;0.50;;;24.80;53.20;;;;;;5075905;28;20027;-73
2022/09/22 12:51:52;;;;;;;3.08;0.85;;;25.20;51.70;;;;;;5076009;28;20028;-73
2022/09/22 12:54:21;;;;;;;0.55;0.45;;;25.80;52.20;;;;;;5075615;28;20427;-73
2022/09/22 12:56:53;;;;;;;0.70;0.68;;;25.20;49.60;;;;;;5058152;28;20024;-73
2022/09/22 12:59:37;;;;;;;1.45;0.50;;;23.80;51.40;;;;;;5059932;28;20088;-73
2022/09/22 13:02:17;;;;;;;0.47;0.47;;;22.50;56.10;;;;;;5071652;28;20128;-73
2022/09/22 13:04:54;;;;;;;0.30;0.30;;;21.20;58.80;;;;;;5055736;28;20029;-73
2022/09/22 13:07:39;;;;;;;0.32;0.30;;;20.60;59.10;;;;;;5055752;28;20037;-73
2022/09/22 13:10:23;;;;;;;1.38;0.30;;;19.80;62.70;;;;;;5055407;28;20021;-73
2022/09/22 13:13:11;;;;;;;1.33;0.40;;;19.40;64.60;;;;;;5037743;28;20110;-74
2022/09/22 13:15:48;;;;;;;0.57;0.45;;;19.00;64.90;;;;;;5038265;28;20029;-73
2022/09/22 13:18:26;;;;;;;1.25;0.40;;;18.60;65.10;;;;;;5055492;28;20070;-73
2022/09/22 13:20:51;;;;;;;0.20;0.20;;;19.20;65.00;;;;;;5055343;28;20061;-73
2022/09/22 13:23:17;;;;;;;1.20;0.20;;;20.60;61.00;;;;;;5037615;28;20056;-73
2022/09/22 13:25:43;;;;;;;3.50;0.35;;;21.10;59.40;;;;;;5055362;28;20033;-73
2022/09/22 13:28:08;;;;;;;1.80;0.50;;;20.20;61.00;;;;;;5055241;28;20020;-74
2022/09/22 13:30:35;;;;;;;0.30;0.30;;;19.10;63.90;;;;;;5037463;28;20052;-73
2022/09/22 13:33:01;;;;;;;1.08;0.50;;;18.30;67.20;;;;;;5055408;28;20472;-73
2022/09/22 13:35:31;;;;;;;2.45;0.50;;;17.70;70.80;;;;;;5037492;28;20033;-73